ENRA

Mo i Rana , Røssvoll Airport

Mo i Rana, Norway
TAF ENRA 230800Z 2309/2318 09009KT 9999 FEW030 BKN070 TEMPO 2309/2318 10015G25KT
Issued Valid From Valid To
Apr-23 @ 08:00 UTC
(2 hours ago)
Apr-23 @ 09:00 UTC
(31 minutes ago)
Apr-23 @ 18:00 UTC
(in 8 hours)
Apr-23 @ 09:00 to Apr-23 @ 18:00
TAF ENRA 230800Z 2309/2318 09009KT 9999 FEW030 BKN070
Wind Visibility Clouds
90° at 9 knots 10,000+ meters
  • Few at 3,000' AGL
  • Broken at 7,000' AGL
Temporary Apr-23 @ 09:00 to Apr-23 @ 18:00
TEMPO 2309/2318 10015G25KT
Wind
100° at 15 knots
 Gusting to 25 knots
TAF ENRA 230800Z 2309/2318 09009KT 9999 FEW030 BKN070 TEMPO 2309/2318 10015G25KT
Issued Apr-23 @ 08:00 UTC
(2 hours ago)
Valid From Apr-23 @ 09:00 UTC
(31 minutes ago)
Valid To Apr-23 @ 18:00 UTC
(in 8 hours)
Apr-23 @ 09:00 - Apr-23 @ 18:00
Wind Visibility
90° at 9 knots 10,000+ meters
Clouds
  • Few at 3,000' AGL
  • Broken at 7,000' AGL
Temporary Apr-23 @ 09:00 - Apr-23 @ 18:00
Wind
100° at 15 knots
 Gusting to 25 knots